sensor_id;sensor_type;location;lat;lon;timestamp;P1;durP1;ratioP1;P2;durP2;ratioP2
30048;SDS011;16879;50.852;15.602;2022-11-03T00:01:51;4.78;;;2.50;;
30048;SDS011;16879;50.852;15.602;2022-11-03T00:04:17;3.45;;;2.17;;
30048;SDS011;16879;50.852;15.602;2022-11-03T00:06:45;10.35;;;2.63;;
30048;SDS011;16879;50.852;15.602;2022-11-03T00:09:13;8.07;;;2.53;;
30048;SDS011;16879;50.852;15.602;2022-11-03T00:11:40;9.27;;;3.45;;
30048;SDS011;16879;50.852;15.602;2022-11-03T00:14:07;7.40;;;2.50;;
30048;SDS011;16879;50.852;15.602;2022-11-03T00:16:34;8.43;;;3.13;;
30048;SDS011;16879;50.852;15.602;2022-11-03T00:19:00;7.40;;;2.83;;
30048;SDS011;16879;50.852;15.602;2022-11-03T00:21:26;6.32;;;2.58;;
30048;SDS011;16879;50.852;15.602;2022-11-03T00:23:53;10.80;;;3.28;;
30048;SDS011;16879;50.852;15.602;2022-11-03T00:26:23;8.38;;;2.92;;
30048;SDS011;16879;50.852;15.602;2022-11-03T00:28:51;4.30;;;2.97;;
30048;SDS011;16879;50.852;15.602;2022-11-03T00:31:20;10.70;;;3.85;;
30048;SDS011;16879;50.852;15.602;2022-11-03T00:33:48;9.18;;;3.17;;
30048;SDS011;16879;50.852;15.602;2022-11-03T00:36:18;13.20;;;3.30;;
30048;SDS011;16879;50.852;15.602;2022-11-03T00:38:45;10.63;;;3.85;;
30048;SDS011;16879;50.852;15.602;2022-11-03T00:41:12;9.32;;;4.28;;
30048;SDS011;16879;50.852;15.602;2022-11-03T00:43:38;9.20;;;3.63;;
30048;SDS011;16879;50.852;15.602;2022-11-03T00:46:08;9.93;;;3.97;;
30048;SDS011;16879;50.852;15.602;2022-11-03T00:48:34;10.27;;;3.00;;
30048;SDS011;16879;50.852;15.602;2022-11-03T00:53:28;7.60;;;3.08;;
30048;SDS011;16879;50.852;15.602;2022-11-03T00:55:54;9.90;;;5.10;;
30048;SDS011;16879;50.852;15.602;2022-11-03T00:58:20;5.65;;;3.03;;
30048;SDS011;16879;50.852;15.602;2022-11-03T01:00:46;8.35;;;2.35;;
30048;SDS011;16879;50.852;15.602;2022-11-03T01:03:12;7.03;;;2.70;;
30048;SDS011;16879;50.852;15.602;2022-11-03T01:05:41;10.27;;;3.65;;
30048;SDS011;16879;50.852;15.602;2022-11-03T01:08:33;18.60;;;5.80;;
30048;SDS011;16879;50.852;15.602;2022-11-03T01:11:03;18.20;;;5.63;;
30048;SDS011;16879;50.852;15.602;2022-11-03T01:13:55;10.15;;;3.60;;
30048;SDS011;16879;50.852;15.602;2022-11-03T01:16:21;6.80;;;2.75;;
30048;SDS011;16879;50.852;15.602;2022-11-03T01:18:47;7.05;;;2.70;;
30048;SDS011;16879;50.852;15.602;2022-11-03T01:21:13;6.50;;;2.85;;
30048;SDS011;16879;50.852;15.602;2022-11-03T01:23:40;8.35;;;2.70;;
30048;SDS011;16879;50.852;15.602;2022-11-03T01:26:07;6.57;;;2.10;;
30048;SDS011;16879;50.852;15.602;2022-11-03T01:28:38;8.52;;;3.47;;
30048;SDS011;16879;50.852;15.602;2022-11-03T01:31:05;15.57;;;3.80;;
30048;SDS011;16879;50.852;15.602;2022-11-03T01:33:36;11.63;;;3.70;;
30048;SDS011;16879;50.852;15.602;2022-11-03T01:36:02;6.15;;;2.50;;
30048;SDS011;16879;50.852;15.602;2022-11-03T01:38:32;7.78;;;3.28;;
30048;SDS011;16879;50.852;15.602;2022-11-03T01:40:59;8.45;;;3.08;;
30048;SDS011;16879;50.852;15.602;2022-11-03T01:43:26;10.52;;;2.83;;
30048;SDS011;16879;50.852;15.602;2022-11-03T01:48:33;8.15;;;3.08;;
30048;SDS011;16879;50.852;15.602;2022-11-03T01:51:01;6.20;;;2.63;;
30048;SDS011;16879;50.852;15.602;2022-11-03T01:53:29;12.85;;;3.47;;
30048;SDS011;16879;50.852;15.602;2022-11-03T01:55:56;7.15;;;2.03;;
30048;SDS011;16879;50.852;15.602;2022-11-03T01:58:27;9.30;;;2.28;;
30048;SDS011;16879;50.852;15.602;2022-11-03T02:00:57;4.35;;;2.22;;
30048;SDS011;16879;50.852;15.602;2022-11-03T02:03:25;3.72;;;2.25;;
30048;SDS011;16879;50.852;15.602;2022-11-03T02:05:56;15.00;;;8.45;;
30048;SDS011;16879;50.852;15.602;2022-11-03T02:08:24;18.17;;;8.93;;
30048;SDS011;16879;50.852;15.602;2022-11-03T02:10:54;8.32;;;4.90;;
30048;SDS011;16879;50.852;15.602;2022-11-03T02:13:23;14.73;;;5.07;;
30048;SDS011;16879;50.852;15.602;2022-11-03T02:15:54;17.50;;;8.70;;
30048;SDS011;16879;50.852;15.602;2022-11-03T02:18:23;21.35;;;10.82;;
30048;SDS011;16879;50.852;15.602;2022-11-03T02:21:07;17.60;;;10.35;;
30048;SDS011;16879;50.852;15.602;2022-11-03T02:26:19;22.52;;;13.75;;
30048;SDS011;16879;50.852;15.602;2022-11-03T02:28:45;25.80;;;15.63;;
30048;SDS011;16879;50.852;15.602;2022-11-03T02:31:15;23.98;;;14.80;;
30048;SDS011;16879;50.852;15.602;2022-11-03T02:33:53;20.05;;;12.70;;
30048;SDS011;16879;50.852;15.602;2022-11-03T02:36:26;25.13;;;14.00;;
30048;SDS011;16879;50.852;15.602;2022-11-03T02:39:15;25.27;;;15.70;;
30048;SDS011;16879;50.852;15.602;2022-11-03T02:41:47;22.13;;;14.50;;
30048;SDS011;16879;50.852;15.602;2022-11-03T02:44:15;29.73;;;16.23;;
30048;SDS011;16879;50.852;15.602;2022-11-03T02:46:44;26.10;;;15.52;;
30048;SDS011;16879;50.852;15.602;2022-11-03T02:49:17;22.85;;;14.77;;
30048;SDS011;16879;50.852;15.602;2022-11-03T02:51:43;22.90;;;14.45;;
30048;SDS011;16879;50.852;15.602;2022-11-03T02:54:18;22.25;;;13.70;;
30048;SDS011;16879;50.852;15.602;2022-11-03T02:57:01;21.60;;;13.18;;
30048;SDS011;16879;50.852;15.602;2022-11-03T02:59:34;23.92;;;13.95;;
30048;SDS011;16879;50.852;15.602;2022-11-03T03:02:11;23.35;;;14.05;;
30048;SDS011;16879;50.852;15.602;2022-11-03T03:04:47;23.73;;;13.70;;
30048;SDS011;16879;50.852;15.602;2022-11-03T03:09:57;22.42;;;13.90;;
30048;SDS011;16879;50.852;15.602;2022-11-03T03:12:25;23.00;;;14.60;;
30048;SDS011;16879;50.852;15.602;2022-11-03T03:14:52;27.35;;;14.63;;
30048;SDS011;16879;50.852;15.602;2022-11-03T03:17:24;21.17;;;13.55;;
30048;SDS011;16879;50.852;15.602;2022-11-03T03:20:18;23.70;;;15.87;;
30048;SDS011;16879;50.852;15.602;2022-11-03T03:28:04;15.50;;;9.70;;
30048;SDS011;16879;50.852;15.602;2022-11-03T03:30:37;18.63;;;9.50;;
30048;SDS011;16879;50.852;15.602;2022-11-03T03:33:06;18.17;;;9.43;;
30048;SDS011;16879;50.852;15.602;2022-11-03T03:35:33;11.48;;;7.15;;
30048;SDS011;16879;50.852;15.602;2022-11-03T03:38:38;15.13;;;6.45;;
30048;SDS011;16879;50.852;15.602;2022-11-03T03:40:58;10.45;;;4.55;;
30048;SDS011;16879;50.852;15.602;2022-11-03T03:43:27;8.20;;;4.25;;
30048;SDS011;16879;50.852;15.602;2022-11-03T03:45:57;8.77;;;3.90;;
30048;SDS011;16879;50.852;15.602;2022-11-03T03:48:28;5.60;;;3.60;;
30048;SDS011;16879;50.852;15.602;2022-11-03T03:50:54;8.85;;;3.22;;
30048;SDS011;16879;50.852;15.602;2022-11-03T03:53:20;5.15;;;3.10;;
30048;SDS011;16879;50.852;15.602;2022-11-03T03:55:47;4.80;;;2.80;;
30048;SDS011;16879;50.852;15.602;2022-11-03T03:58:15;4.57;;;2.42;;
30048;SDS011;16879;50.852;15.602;2022-11-03T04:00:42;5.45;;;2.40;;
30048;SDS011;16879;50.852;15.602;2022-11-03T04:03:12;3.63;;;2.83;;
30048;SDS011;16879;50.852;15.602;2022-11-03T04:05:43;5.45;;;3.75;;
30048;SDS011;16879;50.852;15.602;2022-11-03T04:08:10;7.65;;;3.72;;
30048;SDS011;16879;50.852;15.602;2022-11-03T04:10:37;7.72;;;3.60;;
30048;SDS011;16879;50.852;15.602;2022-11-03T04:13:03;5.25;;;3.20;;
30048;SDS011;16879;50.852;15.602;2022-11-03T04:15:52;11.95;;;4.55;;
30048;SDS011;16879;50.852;15.602;2022-11-03T04:18:36;8.82;;;4.70;;
30048;SDS011;16879;50.852;15.602;2022-11-03T04:24:07;9.35;;;5.63;;
30048;SDS011;16879;50.852;15.602;2022-11-03T04:26:33;8.73;;;4.78;;
30048;SDS011;16879;50.852;15.602;2022-11-03T04:28:59;8.05;;;5.47;;
30048;SDS011;16879;50.852;15.602;2022-11-03T04:31:27;9.05;;;5.82;;
30048;SDS011;16879;50.852;15.602;2022-11-03T04:33:55;8.90;;;5.53;;
30048;SDS011;16879;50.852;15.602;2022-11-03T04:36:22;8.85;;;5.53;;
30048;SDS011;16879;50.852;15.602;2022-11-03T04:38:50;9.32;;;6.53;;
30048;SDS011;16879;50.852;15.602;2022-11-03T04:41:17;10.50;;;6.70;;
30048;SDS011;16879;50.852;15.602;2022-11-03T04:43:45;11.55;;;7.10;;
30048;SDS011;16879;50.852;15.602;2022-11-03T04:46:15;10.82;;;7.15;;
30048;SDS011;16879;50.852;15.602;2022-11-03T04:48:42;11.00;;;6.97;;
30048;SDS011;16879;50.852;15.602;2022-11-03T04:51:13;12.68;;;7.47;;
30048;SDS011;16879;50.852;15.602;2022-11-03T04:54:24;7.82;;;6.22;;
30048;SDS011;16879;50.852;15.602;2022-11-03T04:56:38;11.63;;;6.72;;
30048;SDS011;16879;50.852;15.602;2022-11-03T04:59:08;16.58;;;7.68;;
30048;SDS011;16879;50.852;15.602;2022-11-03T05:01:35;15.23;;;7.95;;
30048;SDS011;16879;50.852;15.602;2022-11-03T05:04:04;12.48;;;7.32;;
30048;SDS011;16879;50.852;15.602;2022-11-03T05:06:33;11.15;;;8.45;;
30048;SDS011;16879;50.852;15.602;2022-11-03T05:08:59;14.75;;;8.27;;
30048;SDS011;16879;50.852;15.602;2022-11-03T05:11:39;15.93;;;10.18;;
30048;SDS011;16879;50.852;15.602;2022-11-03T05:14:14;14.05;;;8.63;;
30048;SDS011;16879;50.852;15.602;2022-11-03T05:16:44;16.92;;;9.13;;
30048;SDS011;16879;50.852;15.602;2022-11-03T05:19:26;19.85;;;9.88;;
30048;SDS011;16879;50.852;15.602;2022-11-03T05:21:58;16.83;;;8.23;;
30048;SDS011;16879;50.852;15.602;2022-11-03T05:24:26;20.35;;;10.82;;
30048;SDS011;16879;50.852;15.602;2022-11-03T05:26:53;21.35;;;10.45;;
30048;SDS011;16879;50.852;15.602;2022-11-03T05:29:21;29.00;;;11.98;;
30048;SDS011;16879;50.852;15.602;2022-11-03T05:31:50;18.58;;;9.73;;
30048;SDS011;16879;50.852;15.602;2022-11-03T05:34:27;26.83;;;12.77;;
30048;SDS011;16879;50.852;15.602;2022-11-03T05:36:57;16.25;;;9.75;;
30048;SDS011;16879;50.852;15.602;2022-11-03T05:39:28;21.63;;;12.10;;
30048;SDS011;16879;50.852;15.602;2022-11-03T05:41:55;15.35;;;9.07;;
30048;SDS011;16879;50.852;15.602;2022-11-03T05:44:24;21.58;;;11.13;;
30048;SDS011;16879;50.852;15.602;2022-11-03T05:46:54;21.13;;;11.30;;
30048;SDS011;16879;50.852;15.602;2022-11-03T05:49:20;85.68;;;25.33;;
30048;SDS011;16879;50.852;15.602;2022-11-03T05:51:45;58.72;;;26.02;;
30048;SDS011;16879;50.852;15.602;2022-11-03T05:54:15;85.97;;;33.00;;
30048;SDS011;16879;50.852;15.602;2022-11-03T05:56:48;102.05;;;43.63;;
30048;SDS011;16879;50.852;15.602;2022-11-03T05:59:15;213.50;;;75.38;;
30048;SDS011;16879;50.852;15.602;2022-11-03T06:01:43;89.20;;;40.35;;
30048;SDS011;16879;50.852;15.602;2022-11-03T06:06:46;41.22;;;19.90;;
30048;SDS011;16879;50.852;15.602;2022-11-03T06:09:17;39.63;;;19.27;;
30048;SDS011;16879;50.852;15.602;2022-11-03T06:11:46;38.03;;;16.58;;
30048;SDS011;16879;50.852;15.602;2022-11-03T06:14:19;34.55;;;17.08;;
30048;SDS011;16879;50.852;15.602;2022-11-03T06:16:49;31.08;;;15.35;;
30048;SDS011;16879;50.852;15.602;2022-11-03T06:21:54;31.05;;;15.35;;
30048;SDS011;16879;50.852;15.602;2022-11-03T06:24:24;39.50;;;21.50;;
30048;SDS011;16879;50.852;15.602;2022-11-03T06:26:55;36.90;;;18.77;;
30048;SDS011;16879;50.852;15.602;2022-11-03T06:29:21;41.60;;;22.25;;
30048;SDS011;16879;50.852;15.602;2022-11-03T06:31:51;64.10;;;27.98;;
30048;SDS011;16879;50.852;15.602;2022-11-03T06:34:35;43.67;;;21.73;;
30048;SDS011;16879;50.852;15.602;2022-11-03T06:37:15;31.83;;;17.23;;
30048;SDS011;16879;50.852;15.602;2022-11-03T06:39:44;42.35;;;20.98;;
30048;SDS011;16879;50.852;15.602;2022-11-03T06:42:14;34.60;;;18.17;;
30048;SDS011;16879;50.852;15.602;2022-11-03T06:44:48;28.40;;;16.43;;
30048;SDS011;16879;50.852;15.602;2022-11-03T06:49:52;26.33;;;14.80;;
30048;SDS011;16879;50.852;15.602;2022-11-03T06:52:23;28.13;;;15.73;;
30048;SDS011;16879;50.852;15.602;2022-11-03T06:54:58;35.95;;;18.23;;
30048;SDS011;16879;50.852;15.602;2022-11-03T06:57:33;25.58;;;15.32;;
30048;SDS011;16879;50.852;15.602;2022-11-03T07:00:14;31.13;;;16.13;;
30048;SDS011;16879;50.852;15.602;2022-11-03T07:05:42;29.23;;;18.10;;
30048;SDS011;16879;50.852;15.602;2022-11-03T07:08:17;37.13;;;21.13;;
30048;SDS011;16879;50.852;15.602;2022-11-03T07:10:45;30.17;;;16.63;;
30048;SDS011;16879;50.852;15.602;2022-11-03T07:13:15;29.75;;;18.63;;
30048;SDS011;16879;50.852;15.602;2022-11-03T07:15:47;27.20;;;17.35;;
30048;SDS011;16879;50.852;15.602;2022-11-03T07:18:27;27.52;;;15.63;;
30048;SDS011;16879;50.852;15.602;2022-11-03T07:20:57;36.35;;;22.00;;
30048;SDS011;16879;50.852;15.602;2022-11-03T07:23:24;59.92;;;30.10;;
30048;SDS011;16879;50.852;15.602;2022-11-03T07:25:54;57.60;;;29.92;;
30048;SDS011;16879;50.852;15.602;2022-11-03T07:28:23;44.58;;;23.52;;
30048;SDS011;16879;50.852;15.602;2022-11-03T07:30:57;51.17;;;26.98;;
30048;SDS011;16879;50.852;15.602;2022-11-03T07:33:25;42.33;;;23.33;;
30048;SDS011;16879;50.852;15.602;2022-11-03T07:35:53;55.63;;;27.58;;
30048;SDS011;16879;50.852;15.602;2022-11-03T07:38:21;42.33;;;22.23;;
30048;SDS011;16879;50.852;15.602;2022-11-03T07:40:50;33.88;;;19.35;;
30048;SDS011;16879;50.852;15.602;2022-11-03T07:45:47;39.92;;;21.08;;
30048;SDS011;16879;50.852;15.602;2022-11-03T07:51:19;72.90;;;39.00;;
30048;SDS011;16879;50.852;15.602;2022-11-03T07:53:46;51.72;;;27.55;;
30048;SDS011;16879;50.852;15.602;2022-11-03T07:56:16;45.88;;;24.13;;
30048;SDS011;16879;50.852;15.602;2022-11-03T07:59:11;37.95;;;21.17;;
30048;SDS011;16879;50.852;15.602;2022-11-03T08:01:44;32.53;;;20.33;;
30048;SDS011;16879;50.852;15.602;2022-11-03T08:04:19;38.65;;;20.65;;
30048;SDS011;16879;50.852;15.602;2022-11-03T08:06:53;39.50;;;23.77;;
30048;SDS011;16879;50.852;15.602;2022-11-03T08:09:19;39.15;;;22.83;;
30048;SDS011;16879;50.852;15.602;2022-11-03T08:11:45;31.77;;;20.42;;
30048;SDS011;16879;50.852;15.602;2022-11-03T08:14:12;30.60;;;19.48;;
30048;SDS011;16879;50.852;15.602;2022-11-03T08:16:39;38.60;;;24.13;;
30048;SDS011;16879;50.852;15.602;2022-11-03T08:19:05;35.53;;;22.05;;
30048;SDS011;16879;50.852;15.602;2022-11-03T08:21:31;31.25;;;17.83;;
30048;SDS011;16879;50.852;15.602;2022-11-03T08:23:57;30.00;;;18.42;;
30048;SDS011;16879;50.852;15.602;2022-11-03T08:26:23;26.42;;;16.58;;
30048;SDS011;16879;50.852;15.602;2022-11-03T08:28:50;26.75;;;15.32;;
30048;SDS011;16879;50.852;15.602;2022-11-03T08:31:16;24.17;;;14.35;;
30048;SDS011;16879;50.852;15.602;2022-11-03T08:33:42;23.75;;;14.32;;
30048;SDS011;16879;50.852;15.602;2022-11-03T08:36:08;25.33;;;13.73;;
30048;SDS011;16879;50.852;15.602;2022-11-03T08:38:35;22.20;;;13.82;;
30048;SDS011;16879;50.852;15.602;2022-11-03T08:41:01;22.30;;;15.15;;
30048;SDS011;16879;50.852;15.602;2022-11-03T08:43:28;16.55;;;11.38;;
30048;SDS011;16879;50.852;15.602;2022-11-03T08:45:54;14.95;;;9.35;;
30048;SDS011;16879;50.852;15.602;2022-11-03T08:48:20;13.23;;;8.57;;
30048;SDS011;16879;50.852;15.602;2022-11-03T08:50:53;14.38;;;9.57;;
30048;SDS011;16879;50.852;15.602;2022-11-03T08:53:23;16.05;;;9.43;;
30048;SDS011;16879;50.852;15.602;2022-11-03T08:55:50;11.90;;;7.85;;
30048;SDS011;16879;50.852;15.602;2022-11-03T08:58:18;9.40;;;7.47;;
30048;SDS011;16879;50.852;15.602;2022-11-03T09:00:45;10.90;;;7.93;;
30048;SDS011;16879;50.852;15.602;2022-11-03T09:03:12;11.77;;;7.90;;
30048;SDS011;16879;50.852;15.602;2022-11-03T09:05:38;9.80;;;8.20;;
30048;SDS011;16879;50.852;15.602;2022-11-03T09:08:04;10.05;;;7.32;;
30048;SDS011;16879;50.852;15.602;2022-11-03T09:10:31;13.50;;;7.18;;
30048;SDS011;16879;50.852;15.602;2022-11-03T09:12:57;12.90;;;7.93;;
30048;SDS011;16879;50.852;15.602;2022-11-03T09:15:23;11.20;;;6.88;;
30048;SDS011;16879;50.852;15.602;2022-11-03T09:17:49;21.65;;;9.73;;
30048;SDS011;16879;50.852;15.602;2022-11-03T09:20:15;14.25;;;8.45;;
30048;SDS011;16879;50.852;15.602;2022-11-03T09:22:42;8.20;;;5.70;;
30048;SDS011;16879;50.852;15.602;2022-11-03T09:25:08;10.02;;;6.25;;
30048;SDS011;16879;50.852;15.602;2022-11-03T09:27:34;8.85;;;6.10;;
30048;SDS011;16879;50.852;15.602;2022-11-03T09:29:59;10.38;;;5.63;;
30048;SDS011;16879;50.852;15.602;2022-11-03T09:32:25;10.98;;;6.47;;
30048;SDS011;16879;50.852;15.602;2022-11-03T09:34:51;12.48;;;8.20;;
30048;SDS011;16879;50.852;15.602;2022-11-03T09:37:17;14.82;;;8.57;;
30048;SDS011;16879;50.852;15.602;2022-11-03T09:39:44;10.65;;;6.75;;
30048;SDS011;16879;50.852;15.602;2022-11-03T09:42:10;11.15;;;7.70;;
30048;SDS011;16879;50.852;15.602;2022-11-03T09:44:36;9.73;;;7.22;;
30048;SDS011;16879;50.852;15.602;2022-11-03T09:47:03;10.05;;;6.95;;
30048;SDS011;16879;50.852;15.602;2022-11-03T09:49:30;13.93;;;7.07;;
30048;SDS011;16879;50.852;15.602;2022-11-03T09:52:01;12.98;;;8.60;;
30048;SDS011;16879;50.852;15.602;2022-11-03T09:54:31;12.23;;;7.88;;
30048;SDS011;16879;50.852;15.602;2022-11-03T09:56:58;14.00;;;9.27;;
30048;SDS011;16879;50.852;15.602;2022-11-03T09:59:33;14.80;;;9.95;;
30048;SDS011;16879;50.852;15.602;2022-11-03T10:02:01;12.45;;;7.72;;
30048;SDS011;16879;50.852;15.602;2022-11-03T10:04:28;9.07;;;6.72;;
30048;SDS011;16879;50.852;15.602;2022-11-03T10:06:55;14.05;;;7.47;;
30048;SDS011;16879;50.852;15.602;2022-11-03T10:09:22;14.95;;;8.73;;
30048;SDS011;16879;50.852;15.602;2022-11-03T10:11:53;12.30;;;8.63;;
30048;SDS011;16879;50.852;15.602;2022-11-03T10:14:19;9.73;;;8.27;;
30048;SDS011;16879;50.852;15.602;2022-11-03T10:16:50;15.75;;;9.23;;
30048;SDS011;16879;50.852;15.602;2022-11-03T10:19:25;13.13;;;8.93;;
30048;SDS011;16879;50.852;15.602;2022-11-03T10:21:51;13.95;;;8.48;;
30048;SDS011;16879;50.852;15.602;2022-11-03T10:24:17;10.93;;;7.43;;
30048;SDS011;16879;50.852;15.602;2022-11-03T10:29:20;13.43;;;8.98;;
30048;SDS011;16879;50.852;15.602;2022-11-03T10:31:54;9.70;;;6.95;;
30048;SDS011;16879;50.852;15.602;2022-11-03T10:34:26;11.30;;;7.43;;
30048;SDS011;16879;50.852;15.602;2022-11-03T10:37:13;10.25;;;7.32;;
30048;SDS011;16879;50.852;15.602;2022-11-03T10:39:41;12.15;;;7.63;;
30048;SDS011;16879;50.852;15.602;2022-11-03T10:42:17;13.20;;;7.57;;
30048;SDS011;16879;50.852;15.602;2022-11-03T10:44:49;16.67;;;8.82;;
30048;SDS011;16879;50.852;15.602;2022-11-03T10:49:58;12.18;;;7.22;;
30048;SDS011;16879;50.852;15.602;2022-11-03T10:52:43;13.90;;;8.75;;
30048;SDS011;16879;50.852;15.602;2022-11-03T10:55:08;10.50;;;7.18;;
30048;SDS011;16879;50.852;15.602;2022-11-03T10:57:35;17.15;;;8.95;;
30048;SDS011;16879;50.852;15.602;2022-11-03T11:00:01;11.30;;;6.68;;
30048;SDS011;16879;50.852;15.602;2022-11-03T11:02:29;13.23;;;7.55;;
30048;SDS011;16879;50.852;15.602;2022-11-03T11:04:57;13.65;;;7.78;;
30048;SDS011;16879;50.852;15.602;2022-11-03T11:07:32;12.70;;;7.60;;
30048;SDS011;16879;50.852;15.602;2022-11-03T11:10:06;13.20;;;7.13;;
30048;SDS011;16879;50.852;15.602;2022-11-03T11:15:57;5.70;;;4.43;;
30048;SDS011;16879;50.852;15.602;2022-11-03T11:26:12;10.43;;;5.30;;
30048;SDS011;16879;50.852;15.602;2022-11-03T11:31:40;10.90;;;5.85;;
30048;SDS011;16879;50.852;15.602;2022-11-03T11:36:46;6.15;;;4.20;;
30048;SDS011;16879;50.852;15.602;2022-11-03T11:52:57;4.25;;;1.92;;
30048;SDS011;16879;50.852;15.602;2022-11-03T11:55:45;3.05;;;1.38;;
30048;SDS011;16879;50.852;15.602;2022-11-03T11:58:19;4.47;;;1.55;;
30048;SDS011;16879;50.852;15.602;2022-11-03T12:00:53;5.03;;;1.90;;
30048;SDS011;16879;50.852;15.602;2022-11-03T12:03:24;3.05;;;1.50;;
30048;SDS011;16879;50.852;15.602;2022-11-03T12:05:53;4.43;;;1.70;;
30048;SDS011;16879;50.852;15.602;2022-11-03T12:08:22;2.80;;;1.73;;
30048;SDS011;16879;50.852;15.602;2022-11-03T12:10:53;3.83;;;1.67;;
30048;SDS011;16879;50.852;15.602;2022-11-03T12:16:25;3.08;;;1.48;;
30048;SDS011;16879;50.852;15.602;2022-11-03T12:18:52;3.03;;;1.90;;
30048;SDS011;16879;50.852;15.602;2022-11-03T12:26:55;9.07;;;2.00;;
30048;SDS011;16879;50.852;15.602;2022-11-03T12:29:22;2.30;;;1.42;;
30048;SDS011;16879;50.852;15.602;2022-11-03T12:31:48;5.38;;;2.13;;
30048;SDS011;16879;50.852;15.602;2022-11-03T12:34:14;5.13;;;2.28;;
30048;SDS011;16879;50.852;15.602;2022-11-03T12:36:43;4.28;;;2.22;;
30048;SDS011;16879;50.852;15.602;2022-11-03T12:39:10;3.72;;;2.60;;
30048;SDS011;16879;50.852;15.602;2022-11-03T12:41:36;5.13;;;2.22;;
30048;SDS011;16879;50.852;15.602;2022-11-03T12:44:02;6.63;;;2.88;;
30048;SDS011;16879;50.852;15.602;2022-11-03T12:46:28;5.68;;;3.15;;
30048;SDS011;16879;50.852;15.602;2022-11-03T12:48:54;16.60;;;4.30;;
30048;SDS011;16879;50.852;15.602;2022-11-03T12:51:21;8.23;;;3.00;;
30048;SDS011;16879;50.852;15.602;2022-11-03T12:53:48;5.43;;;2.50;;
30048;SDS011;16879;50.852;15.602;2022-11-03T12:56:15;5.07;;;3.05;;
30048;SDS011;16879;50.852;15.602;2022-11-03T12:58:42;5.78;;;2.80;;
30048;SDS011;16879;50.852;15.602;2022-11-03T13:01:08;8.55;;;3.10;;
30048;SDS011;16879;50.852;15.602;2022-11-03T13:03:34;7.18;;;3.47;;
30048;SDS011;16879;50.852;15.602;2022-11-03T13:06:01;6.50;;;3.47;;
30048;SDS011;16879;50.852;15.602;2022-11-03T13:08:29;4.22;;;2.65;;
30048;SDS011;16879;50.852;15.602;2022-11-03T13:10:55;5.00;;;2.80;;
30048;SDS011;16879;50.852;15.602;2022-11-03T13:13:21;6.30;;;3.03;;
30048;SDS011;16879;50.852;15.602;2022-11-03T13:15:47;4.88;;;2.60;;
30048;SDS011;16879;50.852;15.602;2022-11-03T13:18:13;3.55;;;2.45;;
30048;SDS011;16879;50.852;15.602;2022-11-03T13:20:40;4.30;;;2.47;;
30048;SDS011;16879;50.852;15.602;2022-11-03T13:23:07;6.05;;;3.25;;
30048;SDS011;16879;50.852;15.602;2022-11-03T13:25:33;5.35;;;2.70;;
30048;SDS011;16879;50.852;15.602;2022-11-03T13:27:59;3.08;;;2.40;;
30048;SDS011;16879;50.852;15.602;2022-11-03T13:30:27;4.28;;;2.78;;
30048;SDS011;16879;50.852;15.602;2022-11-03T13:32:53;4.07;;;2.38;;
30048;SDS011;16879;50.852;15.602;2022-11-03T13:35:19;3.95;;;2.45;;
30048;SDS011;16879;50.852;15.602;2022-11-03T13:37:44;4.00;;;2.40;;
30048;SDS011;16879;50.852;15.602;2022-11-03T13:40:11;2.33;;;2.05;;
30048;SDS011;16879;50.852;15.602;2022-11-03T13:42:37;3.45;;;2.30;;
30048;SDS011;16879;50.852;15.602;2022-11-03T13:45:04;2.33;;;1.42;;
30048;SDS011;16879;50.852;15.602;2022-11-03T13:47:31;5.72;;;2.70;;
30048;SDS011;16879;50.852;15.602;2022-11-03T13:49:57;2.65;;;2.42;;
30048;SDS011;16879;50.852;15.602;2022-11-03T13:52:25;2.65;;;2.33;;
30048;SDS011;16879;50.852;15.602;2022-11-03T13:54:51;3.40;;;2.10;;
30048;SDS011;16879;50.852;15.602;2022-11-03T13:57:18;3.60;;;2.05;;
30048;SDS011;16879;50.852;15.602;2022-11-03T13:59:45;4.88;;;1.88;;
30048;SDS011;16879;50.852;15.602;2022-11-03T14:02:11;3.72;;;2.03;;
30048;SDS011;16879;50.852;15.602;2022-11-03T14:04:38;3.60;;;2.22;;
30048;SDS011;16879;50.852;15.602;2022-11-03T14:07:05;3.72;;;2.70;;
30048;SDS011;16879;50.852;15.602;2022-11-03T14:09:31;6.03;;;3.22;;
30048;SDS011;16879;50.852;15.602;2022-11-03T14:11:58;5.35;;;3.17;;
30048;SDS011;16879;50.852;15.602;2022-11-03T14:14:42;5.10;;;3.00;;
30048;SDS011;16879;50.852;15.602;2022-11-03T14:17:09;4.40;;;2.75;;
30048;SDS011;16879;50.852;15.602;2022-11-03T14:19:35;11.00;;;4.93;;
30048;SDS011;16879;50.852;15.602;2022-11-03T14:22:01;4.82;;;2.83;;
30048;SDS011;16879;50.852;15.602;2022-11-03T14:24:27;6.15;;;2.70;;
30048;SDS011;16879;50.852;15.602;2022-11-03T14:26:53;3.45;;;2.47;;
30048;SDS011;16879;50.852;15.602;2022-11-03T14:29:21;3.13;;;2.50;;
30048;SDS011;16879;50.852;15.602;2022-11-03T14:34:18;4.40;;;2.95;;
30048;SDS011;16879;50.852;15.602;2022-11-03T14:36:44;6.18;;;2.83;;
30048;SDS011;16879;50.852;15.602;2022-11-03T14:39:10;10.98;;;5.20;;
30048;SDS011;16879;50.852;15.602;2022-11-03T14:41:36;6.03;;;3.83;;
30048;SDS011;16879;50.852;15.602;2022-11-03T14:44:20;23.83;;;12.88;;
30048;SDS011;16879;50.852;15.602;2022-11-03T14:46:46;7.45;;;4.30;;
30048;SDS011;16879;50.852;15.602;2022-11-03T14:49:12;11.18;;;6.15;;
30048;SDS011;16879;50.852;15.602;2022-11-03T14:51:38;18.45;;;8.25;;
30048;SDS011;16879;50.852;15.602;2022-11-03T14:54:04;11.60;;;5.53;;
30048;SDS011;16879;50.852;15.602;2022-11-03T14:56:30;8.98;;;4.30;;
30048;SDS011;16879;50.852;15.602;2022-11-03T14:58:56;7.03;;;4.47;;
30048;SDS011;16879;50.852;15.602;2022-11-03T15:01:23;7.35;;;4.03;;
30048;SDS011;16879;50.852;15.602;2022-11-03T15:03:48;5.57;;;3.55;;
30048;SDS011;16879;50.852;15.602;2022-11-03T15:06:14;8.60;;;5.45;;
30048;SDS011;16879;50.852;15.602;2022-11-03T15:08:40;11.57;;;7.68;;
30048;SDS011;16879;50.852;15.602;2022-11-03T15:11:06;17.70;;;7.90;;
30048;SDS011;16879;50.852;15.602;2022-11-03T15:13:33;10.95;;;5.93;;
30048;SDS011;16879;50.852;15.602;2022-11-03T15:16:00;6.15;;;4.43;;
30048;SDS011;16879;50.852;15.602;2022-11-03T15:18:26;13.68;;;7.05;;
30048;SDS011;16879;50.852;15.602;2022-11-03T15:20:52;6.82;;;4.57;;
30048;SDS011;16879;50.852;15.602;2022-11-03T15:23:18;12.07;;;5.38;;
30048;SDS011;16879;50.852;15.602;2022-11-03T15:25:44;6.43;;;3.90;;
30048;SDS011;16879;50.852;15.602;2022-11-03T15:28:10;8.52;;;5.72;;
30048;SDS011;16879;50.852;15.602;2022-11-03T15:30:36;6.40;;;4.63;;
30048;SDS011;16879;50.852;15.602;2022-11-03T15:33:02;4.93;;;3.90;;
30048;SDS011;16879;50.852;15.602;2022-11-03T15:35:28;6.25;;;4.25;;
30048;SDS011;16879;50.852;15.602;2022-11-03T15:37:54;7.63;;;4.60;;
30048;SDS011;16879;50.852;15.602;2022-11-03T15:40:23;7.38;;;4.70;;
30048;SDS011;16879;50.852;15.602;2022-11-03T15:42:49;11.90;;;7.10;;
30048;SDS011;16879;50.852;15.602;2022-11-03T15:45:16;15.52;;;8.40;;
30048;SDS011;16879;50.852;15.602;2022-11-03T15:47:42;15.40;;;9.45;;
30048;SDS011;16879;50.852;15.602;2022-11-03T15:50:08;15.57;;;7.95;;
30048;SDS011;16879;50.852;15.602;2022-11-03T15:52:35;16.77;;;10.55;;
30048;SDS011;16879;50.852;15.602;2022-11-03T15:55:01;18.92;;;11.55;;
30048;SDS011;16879;50.852;15.602;2022-11-03T15:57:29;16.35;;;8.75;;